Time;durP1;ratioP1;P1;durP2;ratioP2;P2;SDS_P1;SDS_P2;PMS_P1;PMS_P2;Temp;Humidity;BMP_temperature;BMP_pressure;BME280_temperature;BME280_humidity;BME280_pressure;Samples;Min_cycle;Max_cycle;Signal;HPM_P1;HPM_P2
2022/10/10 00:01:39;;;;;;;5.97;4.03;;;7.90;99.90;;;;;;4929153;28;20043;-78
2022/10/10 00:04:05;;;;;;;6.07;4.50;;;7.90;99.90;;;;;;4930703;29;20047;-79
2022/10/10 00:06:31;;;;;;;6.38;4.97;;;7.80;99.90;;;;;;4948480;28;20430;-78
2022/10/10 00:08:56;;;;;;;6.35;4.45;;;7.80;99.90;;;;;;4943854;28;20047;-79
2022/10/10 00:11:23;;;;;;;10.85;5.18;;;7.80;99.90;;;;;;4946017;28;20039;-78
2022/10/10 00:13:50;;;;;;;6.63;4.57;;;7.80;99.90;;;;;;4946272;28;20130;-78
2022/10/10 00:16:17;;;;;;;9.13;4.75;;;7.80;99.90;;;;;;4945254;28;20067;-78
2022/10/10 00:18:43;;;;;;;10.27;5.22;;;7.80;99.90;;;;;;4947095;28;20044;-78
2022/10/10 00:21:09;;;;;;;5.65;4.22;;;7.80;99.90;;;;;;4945381;28;20047;-78
2022/10/10 00:23:36;;;;;;;6.07;4.53;;;7.80;99.90;;;;;;4928090;28;20558;-78
2022/10/10 00:26:02;;;;;;;8.57;4.90;;;7.80;99.90;;;;;;4946383;28;20043;-78
2022/10/10 00:28:28;;;;;;;9.30;4.60;;;7.70;99.90;;;;;;4942974;28;20079;-79
2022/10/10 00:30:53;;;;;;;7.13;4.63;;;7.80;99.90;;;;;;4947097;28;20111;-79
2022/10/10 00:33:19;;;;;;;8.40;4.85;;;7.70;99.90;;;;;;4946706;28;20051;-78
2022/10/10 00:35:44;;;;;;;8.20;4.60;;;7.70;99.90;;;;;;4944056;28;20593;-78
2022/10/10 00:38:10;;;;;;;5.68;4.40;;;7.70;99.90;;;;;;4945700;28;20545;-78
2022/10/10 00:40:53;;;;;;;8.07;4.43;;;7.70;99.90;;;;;;4945800;28;22022;-79
2022/10/10 00:43:20;;;;;;;12.32;5.00;;;7.60;99.90;;;;;;4947860;28;20058;-78
2022/10/10 00:45:47;;;;;;;6.85;4.90;;;7.60;99.90;;;;;;4946371;28;20465;-78
2022/10/10 00:48:23;;;;;;;6.43;4.20;;;7.60;99.90;;;;;;4944826;28;20051;-77
2022/10/10 00:51:00;;;;;;;6.78;4.53;;;7.50;99.90;;;;;;4930172;28;20051;-78
2022/10/10 00:53:38;;;;;;;7.25;4.53;;;7.50;99.90;;;;;;4948079;28;20058;-78
2022/10/10 00:56:04;;;;;;;10.82;4.90;;;7.50;99.90;;;;;;4944072;28;20043;-78
2022/10/10 00:58:32;;;;;;;8.60;4.70;;;7.50;99.90;;;;;;4946651;28;20052;-78
2022/10/10 01:00:57;;;;;;;7.32;4.65;;;7.40;99.90;;;;;;4942894;28;20051;-78
2022/10/10 01:03:23;;;;;;;6.88;4.50;;;7.40;99.90;;;;;;4946545;28;20051;-78
2022/10/10 01:05:49;;;;;;;6.60;4.50;;;7.40;99.90;;;;;;4947273;28;20051;-77
2022/10/10 01:08:16;;;;;;;7.72;4.53;;;7.40;99.90;;;;;;4931431;28;20514;-78
2022/10/10 01:11:01;;;;;;;11.93;4.80;;;7.40;99.90;;;;;;4946572;28;20047;-78
2022/10/10 01:14:01;;;;;;;9.07;4.75;;;7.40;99.90;;;;;;4947770;28;20043;-77
2022/10/10 01:16:45;;;;;;;8.40;4.85;;;7.40;99.90;;;;;;4943470;28;20063;-78
2022/10/10 01:19:23;;;;;;;7.05;4.60;;;7.40;99.90;;;;;;4943091;28;20439;-78
2022/10/10 01:22:10;;;;;;;5.40;4.47;;;7.40;99.90;;;;;;4943490;28;20039;-78
2022/10/10 01:24:58;;;;;;;10.18;4.85;;;7.40;99.90;;;;;;4959321;28;20039;-78
2022/10/10 01:27:50;;;;;;;7.40;5.07;;;7.40;99.90;;;;;;4929116;28;20043;-78
2022/10/10 01:30:20;;;;;;;11.52;5.43;;;7.40;99.90;;;;;;4943094;28;20478;-78
2022/10/10 01:32:52;;;;;;;8.07;5.10;;;7.30;99.90;;;;;;4942500;28;20043;-78
2022/10/10 01:35:39;;;;;;;6.72;4.95;;;7.30;99.90;;;;;;4924820;29;20046;-78
2022/10/10 01:38:21;;;;;;;6.38;5.00;;;7.30;99.90;;;;;;4946566;28;20086;-78
2022/10/10 01:40:49;;;;;;;6.75;4.72;;;7.30;99.90;;;;;;4948309;28;20047;-78
2022/10/10 01:43:16;;;;;;;5.60;4.80;;;7.30;99.90;;;;;;4954395;28;20054;-78
2022/10/10 01:45:48;;;;;;;8.05;4.95;;;7.30;99.90;;;;;;4932980;29;20066;-79
2022/10/10 01:48:20;;;;;;;7.78;4.90;;;7.20;99.90;;;;;;4943750;28;20052;-78
2022/10/10 01:51:21;;;;;;;7.75;4.63;;;7.30;99.90;;;;;;4939640;28;20050;-78
2022/10/10 01:54:02;;;;;;;6.63;5.22;;;7.30;99.90;;;;;;4948029;28;20043;-78
2022/10/10 01:56:56;;;;;;;8.07;5.32;;;7.20;99.90;;;;;;4935121;29;20051;-78
2022/10/10 01:59:52;;;;;;;7.93;5.22;;;7.30;99.90;;;;;;4947073;28;20043;-78
2022/10/10 02:02:34;;;;;;;7.28;4.93;;;7.30;99.90;;;;;;4952569;28;20074;-78
2022/10/10 02:05:13;;;;;;;7.88;5.82;;;7.30;99.90;;;;;;4944719;28;20071;-78
2022/10/10 02:07:50;;;;;;;7.30;5.03;;;7.30;99.90;;;;;;4948477;28;20039;-77
2022/10/10 02:10:20;;;;;;;7.55;5.47;;;7.30;99.90;;;;;;4948289;28;20043;-77
2022/10/10 02:12:47;;;;;;;7.93;5.57;;;7.30;99.90;;;;;;4949093;28;20051;-77
2022/10/10 02:15:16;;;;;;;11.50;5.80;;;7.30;99.90;;;;;;4932090;29;20047;-78
2022/10/10 02:17:44;;;;;;;8.55;5.55;;;7.30;99.90;;;;;;4951718;28;20047;-78
2022/10/10 02:20:12;;;;;;;11.40;6.07;;;7.30;99.90;;;;;;4948987;28;20076;-77
2022/10/10 02:22:43;;;;;;;9.73;6.10;;;7.30;99.90;;;;;;4948456;28;20070;-78
2022/10/10 02:25:11;;;;;;;9.23;6.38;;;7.30;99.90;;;;;;4948357;28;20048;-78
2022/10/10 02:27:47;;;;;;;11.70;6.38;;;7.30;99.90;;;;;;4948980;28;20550;-78
2022/10/10 02:30:14;;;;;;;9.27;6.47;;;7.40;99.90;;;;;;4959901;28;20051;-78
2022/10/10 02:32:58;;;;;;;11.07;6.85;;;7.40;99.90;;;;;;4946461;28;20047;-78
2022/10/10 02:35:28;;;;;;;9.25;6.63;;;7.40;99.90;;;;;;4929816;28;20057;-78
2022/10/10 02:37:54;;;;;;;11.77;6.47;;;7.40;99.90;;;;;;4947371;28;20134;-78
2022/10/10 02:40:23;;;;;;;7.22;6.43;;;7.50;99.90;;;;;;4948665;28;20146;-78
2022/10/10 02:42:51;;;;;;;9.60;6.35;;;7.50;99.90;;;;;;4946443;28;20527;-78
2022/10/10 02:45:18;;;;;;;9.23;6.68;;;7.50;99.90;;;;;;4932538;28;20047;-78
2022/10/10 02:47:44;;;;;;;9.80;6.22;;;7.50;99.90;;;;;;4931544;28;20165;-78
2022/10/10 02:50:10;;;;;;;9.43;6.75;;;7.50;99.90;;;;;;4947332;28;20130;-77
2022/10/10 02:52:36;;;;;;;9.15;6.57;;;7.50;99.90;;;;;;4929593;28;20098;-78
2022/10/10 02:55:02;;;;;;;9.43;6.75;;;7.50;99.90;;;;;;4948090;28;20167;-78
2022/10/10 02:57:28;;;;;;;7.72;6.55;;;7.60;99.90;;;;;;4943159;28;20509;-78
2022/10/10 02:59:54;;;;;;;8.68;6.78;;;7.60;99.90;;;;;;4948630;28;20075;-78
2022/10/10 03:02:19;;;;;;;8.55;6.40;;;7.70;99.90;;;;;;4949002;28;20039;-78
2022/10/10 03:04:45;;;;;;;11.63;7.00;;;7.70;99.90;;;;;;4949259;28;20055;-78
2022/10/10 03:07:11;;;;;;;9.90;6.45;;;7.70;99.90;;;;;;4948639;28;20054;-78
2022/10/10 03:09:36;;;;;;;8.32;6.32;;;7.70;99.90;;;;;;4931478;28;20051;-78
2022/10/10 03:12:02;;;;;;;9.20;6.32;;;7.70;99.90;;;;;;4947869;28;20081;-78
2022/10/10 03:14:28;;;;;;;14.23;6.90;;;7.70;99.90;;;;;;4948668;28;20047;-78
2022/10/10 03:16:53;;;;;;;9.68;6.78;;;7.70;99.90;;;;;;4931922;28;20039;-78
2022/10/10 03:19:19;;;;;;;13.50;6.97;;;7.70;99.90;;;;;;4948537;28;20109;-78
2022/10/10 03:21:45;;;;;;;11.60;6.65;;;7.70;99.90;;;;;;4947656;28;20054;-78
2022/10/10 03:24:10;;;;;;;11.43;7.07;;;7.70;99.90;;;;;;4947766;28;20118;-78
2022/10/10 03:26:36;;;;;;;11.43;7.13;;;7.70;99.90;;;;;;4947773;28;20043;-78
2022/10/10 03:29:02;;;;;;;12.15;7.40;;;7.80;99.90;;;;;;4929191;28;20039;-78
2022/10/10 03:31:28;;;;;;;10.38;7.05;;;7.80;99.90;;;;;;4943184;28;20050;-78
2022/10/10 03:33:54;;;;;;;10.48;7.38;;;7.80;99.90;;;;;;4930474;29;20042;-78
2022/10/10 03:36:20;;;;;;;11.95;6.75;;;7.80;99.90;;;;;;4932557;29;20043;-78
2022/10/10 03:38:45;;;;;;;11.30;6.90;;;7.80;99.90;;;;;;4950103;28;20050;-78
2022/10/10 03:41:11;;;;;;;15.43;7.22;;;7.80;99.90;;;;;;4949895;28;20076;-78
2022/10/10 03:43:37;;;;;;;11.50;7.40;;;7.90;99.90;;;;;;4945278;29;20047;-78
2022/10/10 03:46:03;;;;;;;10.02;7.13;;;7.80;99.90;;;;;;4947519;28;20106;-77
2022/10/10 03:48:28;;;;;;;11.07;7.18;;;7.90;99.90;;;;;;4943576;28;20100;-78
2022/10/10 03:50:54;;;;;;;14.45;7.30;;;7.80;99.90;;;;;;4945440;28;20091;-78
2022/10/10 03:53:19;;;;;;;8.48;6.35;;;7.90;99.90;;;;;;4943981;28;20543;-78
2022/10/10 03:55:45;;;;;;;13.50;7.38;;;7.90;99.90;;;;;;4932737;29;20039;-78
2022/10/10 03:58:11;;;;;;;12.15;7.22;;;7.80;99.90;;;;;;4948899;28;20105;-77
2022/10/10 04:00:37;;;;;;;9.95;7.03;;;7.80;99.90;;;;;;4948524;28;20043;-77
2022/10/10 04:03:05;;;;;;;10.80;7.13;;;7.80;99.90;;;;;;4948394;28;20054;-77
2022/10/10 04:05:38;;;;;;;11.60;7.32;;;7.80;99.90;;;;;;4943895;28;20502;-77
2022/10/10 04:08:04;;;;;;;12.27;6.85;;;7.80;99.90;;;;;;4945349;28;20062;-77
2022/10/10 04:10:30;;;;;;;11.45;7.40;;;7.80;99.90;;;;;;4946770;28;20043;-77
2022/10/10 04:12:56;;;;;;;9.57;7.28;;;7.80;99.90;;;;;;4947960;28;20066;-77
2022/10/10 04:15:21;;;;;;;9.05;7.03;;;7.90;99.90;;;;;;4939504;28;20043;-77
2022/10/10 04:17:48;;;;;;;11.27;7.45;;;7.80;99.90;;;;;;4943579;28;20043;-77
2022/10/10 04:20:14;;;;;;;10.13;6.20;;;7.80;99.90;;;;;;4941842;28;20043;-77
2022/10/10 04:22:39;;;;;;;13.05;7.30;;;7.80;99.90;;;;;;4945619;28;20039;-77
2022/10/10 04:25:05;;;;;;;9.82;6.72;;;7.80;99.90;;;;;;4944459;28;20515;-77
2022/10/10 04:27:30;;;;;;;11.32;6.82;;;7.80;99.90;;;;;;4961765;28;20047;-77
2022/10/10 04:29:56;;;;;;;11.25;7.32;;;7.80;99.90;;;;;;4943162;28;20051;-78
2022/10/10 04:32:22;;;;;;;10.07;7.70;;;7.80;99.90;;;;;;4945789;28;20130;-78
2022/10/10 04:34:47;;;;;;;10.38;7.68;;;7.80;99.90;;;;;;4946333;28;20051;-78
2022/10/10 04:37:13;;;;;;;11.82;7.43;;;7.80;99.90;;;;;;4946781;28;20036;-77
2022/10/10 04:39:39;;;;;;;12.35;7.25;;;7.80;99.90;;;;;;4945798;28;20054;-77
2022/10/10 04:42:04;;;;;;;11.68;7.45;;;7.80;99.90;;;;;;4943627;28;20048;-78
2022/10/10 04:44:30;;;;;;;10.75;7.70;;;7.80;99.90;;;;;;4925907;29;20047;-78
2022/10/10 04:46:55;;;;;;;12.55;7.95;;;7.80;99.90;;;;;;4943960;28;20043;-77
2022/10/10 04:49:22;;;;;;;11.57;7.90;;;7.80;99.90;;;;;;4948763;28;20374;-77
2022/10/10 04:51:47;;;;;;;12.82;7.75;;;7.80;99.90;;;;;;4945193;28;20039;-78
2022/10/10 04:54:13;;;;;;;11.13;7.18;;;7.80;99.90;;;;;;4944215;28;20095;-78
2022/10/10 04:56:41;;;;;;;13.63;7.90;;;7.80;99.90;;;;;;4946577;28;20052;-78
2022/10/10 04:59:08;;;;;;;10.65;7.47;;;7.70;99.90;;;;;;4946312;28;20055;-78
2022/10/10 05:01:34;;;;;;;12.20;8.02;;;7.70;99.90;;;;;;4946882;28;20051;-78
2022/10/10 05:03:59;;;;;;;11.00;7.68;;;7.70;99.90;;;;;;4945529;28;20410;-78
2022/10/10 05:06:25;;;;;;;8.27;6.57;;;7.70;99.90;;;;;;4942446;28;20050;-78
2022/10/10 05:08:50;;;;;;;11.52;7.40;;;7.70;99.90;;;;;;4947752;28;20114;-78
2022/10/10 05:11:16;;;;;;;12.00;7.57;;;7.70;99.90;;;;;;4948894;28;20050;-78
2022/10/10 05:13:42;;;;;;;11.85;7.97;;;7.60;99.90;;;;;;4954222;28;20124;-78
2022/10/10 05:16:07;;;;;;;11.07;7.50;;;7.60;99.90;;;;;;4945808;28;20426;-78
2022/10/10 05:18:36;;;;;;;13.50;8.18;;;7.60;99.90;;;;;;4949531;28;20036;-78
2022/10/10 05:21:02;;;;;;;15.30;8.23;;;7.60;99.90;;;;;;4947028;28;20042;-78
2022/10/10 05:23:27;;;;;;;12.68;8.05;;;7.60;99.90;;;;;;4951040;28;20091;-78
2022/10/10 05:25:53;;;;;;;10.57;7.88;;;7.50;99.90;;;;;;4935465;28;20039;-78
2022/10/10 05:28:19;;;;;;;13.80;8.63;;;7.60;99.90;;;;;;4949077;28;20192;-78
2022/10/10 05:30:44;;;;;;;11.57;8.05;;;7.50;99.90;;;;;;4951575;28;20133;-78
2022/10/10 05:33:10;;;;;;;15.15;8.38;;;7.50;99.90;;;;;;4932305;29;20074;-77
2022/10/10 05:35:36;;;;;;;12.13;8.13;;;7.60;99.90;;;;;;4956461;28;20169;-78
2022/10/10 05:38:02;;;;;;;11.23;8.15;;;7.50;99.90;;;;;;4932810;29;20054;-78
2022/10/10 05:40:27;;;;;;;14.27;8.30;;;7.50;99.90;;;;;;4954032;28;20051;-78
2022/10/10 05:42:53;;;;;;;13.57;8.23;;;7.50;99.90;;;;;;4954009;28;20043;-78
2022/10/10 05:45:18;;;;;;;13.00;8.40;;;7.50;99.90;;;;;;4949607;28;20051;-78
2022/10/10 05:47:44;;;;;;;10.23;7.95;;;7.50;99.90;;;;;;4949198;28;20605;-78
2022/10/10 05:50:29;;;;;;;12.95;8.13;;;7.50;99.90;;;;;;4950319;28;20074;-78
2022/10/10 05:52:55;;;;;;;12.05;8.27;;;7.50;99.90;;;;;;4952418;28;20068;-78
2022/10/10 05:55:20;;;;;;;12.63;8.75;;;7.50;99.90;;;;;;4952723;28;20183;-77
2022/10/10 05:57:46;;;;;;;12.30;7.97;;;7.50;99.90;;;;;;4951312;28;20128;-77
2022/10/10 06:00:12;;;;;;;15.45;9.30;;;7.50;99.90;;;;;;4951942;28;20044;-77
2022/10/10 06:02:38;;;;;;;12.90;8.05;;;7.40;99.90;;;;;;4953152;28;20118;-77
2022/10/10 06:05:04;;;;;;;11.32;8.80;;;7.40;99.90;;;;;;4952988;28;20455;-77
2022/10/10 06:07:29;;;;;;;14.60;8.45;;;7.40;99.90;;;;;;4952081;28;20470;-76
2022/10/10 06:09:55;;;;;;;12.73;8.48;;;7.50;99.90;;;;;;4945912;28;20415;-77
2022/10/10 06:12:20;;;;;;;12.63;8.40;;;7.50;99.90;;;;;;4944937;28;20078;-77
2022/10/10 06:14:46;;;;;;;14.13;7.68;;;7.40;99.90;;;;;;4946347;28;20055;-77
2022/10/10 06:17:11;;;;;;;12.50;8.50;;;7.40;99.90;;;;;;4944121;28;20067;-80
2022/10/10 06:19:37;;;;;;;12.45;8.52;;;7.40;99.90;;;;;;4934582;29;20075;-81
2022/10/10 06:22:02;;;;;;;12.75;8.60;;;7.40;99.90;;;;;;4949256;28;20047;-79
2022/10/10 06:24:28;;;;;;;14.32;8.85;;;7.40;99.90;;;;;;4951848;28;20121;-79
2022/10/10 06:26:54;;;;;;;14.15;8.82;;;7.40;99.90;;;;;;4949021;28;20048;-80
2022/10/10 06:29:19;;;;;;;12.02;8.30;;;7.40;99.90;;;;;;4949713;28;20082;-78
2022/10/10 06:31:47;;;;;;;12.13;8.80;;;7.50;99.90;;;;;;4948978;28;20040;-80
2022/10/10 06:34:13;;;;;;;11.57;8.68;;;7.50;99.90;;;;;;4949986;28;20052;-80
2022/10/10 06:36:38;;;;;;;12.30;8.05;;;7.50;99.90;;;;;;4951621;28;20568;-79
2022/10/10 06:39:04;;;;;;;12.57;8.48;;;7.60;99.90;;;;;;4948289;28;20558;-78
2022/10/10 06:41:29;;;;;;;13.07;8.85;;;7.60;99.90;;;;;;4950805;28;20620;-78
2022/10/10 06:43:55;;;;;;;13.77;9.07;;;7.60;99.90;;;;;;4931970;28;20066;-78
2022/10/10 06:46:21;;;;;;;17.65;9.68;;;7.60;99.90;;;;;;4949522;28;20073;-77
2022/10/10 06:48:46;;;;;;;12.77;8.93;;;7.70;99.90;;;;;;4949254;28;20047;-78
2022/10/10 06:51:15;;;;;;;14.10;9.00;;;7.70;99.90;;;;;;4944908;28;20046;-77
2022/10/10 06:53:41;;;;;;;12.30;9.02;;;7.80;99.90;;;;;;4948202;28;20042;-79
2022/10/10 06:56:19;;;;;;;13.68;8.98;;;7.90;99.90;;;;;;4948840;28;20062;-75
2022/10/10 06:58:47;;;;;;;45.40;10.10;;;8.00;99.90;;;;;;4948425;28;20047;-76
2022/10/10 07:01:13;;;;;;;45.35;10.20;;;8.00;99.90;;;;;;4953083;28;20050;-79
2022/10/10 07:03:39;;;;;;;19.70;9.38;;;8.10;99.90;;;;;;4925234;29;20390;-79
2022/10/10 07:06:08;;;;;;;13.00;9.15;;;8.20;99.90;;;;;;4940919;28;20054;-77
2022/10/10 07:08:34;;;;;;;15.02;9.07;;;8.30;99.90;;;;;;4951294;29;20042;-78
2022/10/10 07:10:59;;;;;;;15.95;9.32;;;8.30;99.90;;;;;;4954337;29;20039;-77
2022/10/10 07:13:25;;;;;;;12.23;9.20;;;8.40;99.90;;;;;;4954433;28;20425;-78
2022/10/10 07:15:50;;;;;;;13.93;8.90;;;8.40;99.90;;;;;;4938292;29;20458;-77
2022/10/10 07:18:17;;;;;;;14.35;9.00;;;8.60;99.90;;;;;;4947523;29;20043;-77
2022/10/10 07:20:43;;;;;;;14.23;9.10;;;8.60;99.90;;;;;;4953304;28;20558;-78
2022/10/10 07:23:08;;;;;;;12.35;8.52;;;8.70;99.90;;;;;;4953857;29;20111;-77
2022/10/10 07:25:36;;;;;;;12.77;8.88;;;8.70;99.90;;;;;;4938088;29;20568;-77
2022/10/10 07:28:02;;;;;;;16.67;8.95;;;8.80;99.90;;;;;;4938284;29;20039;-78
2022/10/10 07:30:27;;;;;;;17.92;8.95;;;8.80;99.90;;;;;;4953877;28;20776;-77
2022/10/10 07:32:54;;;;;;;13.13;8.48;;;8.80;99.90;;;;;;4939416;28;20395;-77
2022/10/10 07:35:20;;;;;;;17.38;8.45;;;8.90;99.90;;;;;;4944116;28;20050;-77
2022/10/10 07:37:46;;;;;;;13.02;8.48;;;8.90;99.90;;;;;;4949322;28;20051;-77
2022/10/10 07:40:12;;;;;;;13.25;7.97;;;9.00;99.90;;;;;;4958261;28;20082;-78
2022/10/10 07:42:39;;;;;;;13.48;8.23;;;9.00;99.90;;;;;;4949487;28;20071;-78
2022/10/10 07:45:05;;;;;;;10.57;9.00;;;9.10;99.90;;;;;;4947275;28;20171;-77
2022/10/10 07:47:31;;;;;;;15.93;8.77;;;9.10;99.90;;;;;;4952026;28;20054;-77
2022/10/10 07:49:56;;;;;;;12.88;8.50;;;9.10;99.90;;;;;;4947832;28;20054;-78
2022/10/10 07:52:22;;;;;;;12.02;8.40;;;9.20;99.90;;;;;;4931487;29;20055;-78
2022/10/10 07:54:47;;;;;;;15.90;9.25;;;9.20;99.90;;;;;;4940630;28;21375;-78
2022/10/10 07:57:13;;;;;;;17.25;9.52;;;9.30;99.90;;;;;;4945203;28;20126;-78
2022/10/10 07:59:39;;;;;;;14.23;9.07;;;9.30;99.90;;;;;;4942907;28;20039;-78
2022/10/10 08:02:05;;;;;;;11.80;8.82;;;9.40;99.90;;;;;;4944221;28;20055;-78
2022/10/10 08:04:31;;;;;;;14.23;8.77;;;9.50;99.90;;;;;;4943741;28;20066;-78
2022/10/10 08:06:56;;;;;;;12.27;9.05;;;9.50;99.90;;;;;;4943958;28;20043;-79
2022/10/10 08:09:23;;;;;;;12.93;8.75;;;9.60;99.90;;;;;;4929793;29;20050;-77
2022/10/10 08:11:48;;;;;;;11.68;8.80;;;9.70;99.90;;;;;;4939271;28;20131;-79
2022/10/10 08:14:14;;;;;;;13.05;8.27;;;9.70;99.90;;;;;;4948502;28;20126;-80
2022/10/10 08:16:40;;;;;;;12.82;9.20;;;9.80;99.90;;;;;;4949829;28;20041;-79
2022/10/10 08:19:06;;;;;;;15.57;8.95;;;9.90;99.90;;;;;;4949415;28;20031;-80
2022/10/10 08:21:31;;;;;;;11.10;9.15;;;9.90;99.90;;;;;;4947219;28;20039;-80
2022/10/10 08:23:57;;;;;;;17.23;8.65;;;9.90;99.90;;;;;;4933881;28;20054;-79
2022/10/10 08:26:22;;;;;;;15.68;9.07;;;10.00;99.90;;;;;;4951415;28;20048;-81
2022/10/10 08:28:48;;;;;;;13.32;8.90;;;10.00;99.90;;;;;;4952272;28;20043;-80
2022/10/10 08:31:16;;;;;;;10.75;8.73;;;10.10;99.90;;;;;;4950429;29;20046;-80
2022/10/10 08:33:44;;;;;;;14.05;9.27;;;10.10;99.90;;;;;;4934566;28;20394;-80
2022/10/10 08:36:22;;;;;;;10.20;8.40;;;10.20;99.90;;;;;;4951159;28;20058;-80
2022/10/10 08:38:56;;;;;;;12.75;8.95;;;10.30;99.90;;;;;;4965669;28;20045;-80
2022/10/10 08:41:59;;;;;;;14.20;8.55;;;10.30;99.90;;;;;;4948566;28;20039;-80
2022/10/10 08:45:03;;;;;;;12.82;8.75;;;10.40;99.90;;;;;;4933857;28;20043;-81
2022/10/10 08:47:46;;;;;;;13.63;9.38;;;10.50;99.90;;;;;;4949356;28;20055;-81
2022/10/10 08:50:43;;;;;;;11.48;8.43;;;10.70;99.90;;;;;;4932251;29;20086;-81
2022/10/10 08:53:31;;;;;;;13.20;8.52;;;10.80;99.90;;;;;;4944696;28;20058;-81
2022/10/10 08:56:15;;;;;;;15.63;9.10;;;11.00;99.90;;;;;;4950102;28;20048;-79
2022/10/10 08:58:45;;;;;;;13.70;8.63;;;11.10;99.90;;;;;;4949922;28;20079;-81
2022/10/10 09:01:23;;;;;;;12.13;8.07;;;11.30;99.90;;;;;;4950286;28;20048;-79
2022/10/10 09:03:54;;;;;;;21.25;8.20;;;11.50;99.90;;;;;;4933528;28;20046;-78
2022/10/10 09:06:29;;;;;;;12.10;7.60;;;11.60;99.90;;;;;;4945426;28;20039;-78
2022/10/10 09:09:09;;;;;;;10.63;7.68;;;11.70;99.90;;;;;;4930199;28;20137;-81
2022/10/10 09:11:48;;;;;;;10.90;8.02;;;11.80;99.90;;;;;;4943404;28;20161;-79
2022/10/10 09:14:48;;;;;;;11.88;8.45;;;11.90;99.90;;;;;;4927248;28;20047;-80
2022/10/10 09:17:22;;;;;;;11.85;8.30;;;12.00;99.90;;;;;;4945654;28;20082;-79
2022/10/10 09:20:09;;;;;;;11.95;7.78;;;12.10;99.90;;;;;;4929955;28;21060;-77
2022/10/10 09:23:01;;;;;;;12.10;8.00;;;12.20;99.90;;;;;;4944057;28;20086;-78
2022/10/10 09:25:39;;;;;;;12.85;7.82;;;12.40;99.90;;;;;;4948052;28;20046;-78
2022/10/10 09:28:34;;;;;;;10.90;7.63;;;12.50;99.90;;;;;;4944832;28;20047;-80
2022/10/10 09:31:01;;;;;;;15.38;7.72;;;12.70;99.90;;;;;;4948055;28;20050;-79
2022/10/10 09:33:37;;;;;;;15.30;7.72;;;12.80;99.90;;;;;;4949245;28;20141;-79
2022/10/10 09:36:08;;;;;;;10.40;7.03;;;12.90;99.90;;;;;;4944353;29;20040;-79
2022/10/10 09:38:42;;;;;;;9.15;6.82;;;13.00;99.90;;;;;;4931404;29;20036;-81
2022/10/10 09:41:33;;;;;;;13.75;7.40;;;13.10;99.90;;;;;;4946624;29;20450;-79
2022/10/10 09:44:04;;;;;;;10.10;7.35;;;13.20;99.90;;;;;;4931439;29;20490;-79
2022/10/10 09:46:29;;;;;;;9.60;7.00;;;13.40;99.90;;;;;;4948607;28;20047;-79
2022/10/10 09:48:56;;;;;;;12.55;7.03;;;13.50;99.90;;;;;;4933313;29;20528;-79
2022/10/10 09:51:22;;;;;;;14.32;7.13;;;13.70;99.90;;;;;;4945654;28;20047;-80
2022/10/10 09:53:48;;;;;;;13.23;6.97;;;13.70;99.90;;;;;;4951174;28;20457;-79
2022/10/10 09:56:18;;;;;;;11.15;6.88;;;13.80;99.90;;;;;;4951788;28;20047;-78
2022/10/10 09:58:46;;;;;;;12.57;6.90;;;13.90;99.90;;;;;;4951737;28;20522;-78
2022/10/10 10:01:17;;;;;;;8.95;6.93;;;14.00;99.90;;;;;;4950320;28;20039;-78
2022/10/10 10:04:04;;;;;;;9.32;6.28;;;14.00;99.90;;;;;;4949030;28;20099;-79
2022/10/10 10:06:29;;;;;;;10.07;6.47;;;14.10;99.90;;;;;;4952245;28;20047;-79
2022/10/10 10:09:00;;;;;;;9.00;6.43;;;14.10;99.90;;;;;;4951396;28;20138;-79
2022/10/10 10:11:35;;;;;;;13.00;6.93;;;14.20;99.90;;;;;;4934314;28;20482;-79
2022/10/10 10:14:01;;;;;;;16.08;6.50;;;14.30;99.90;;;;;;4951099;28;20446;-79
2022/10/10 10:16:37;;;;;;;11.68;6.10;;;14.30;99.90;;;;;;4949370;28;20043;-79
2022/10/10 10:19:06;;;;;;;11.75;6.78;;;14.40;99.90;;;;;;4950163;28;20036;-79
2022/10/10 10:21:45;;;;;;;10.68;6.15;;;14.50;99.90;;;;;;4966711;28;20039;-78
2022/10/10 10:24:27;;;;;;;10.50;6.78;;;14.50;99.90;;;;;;4947815;28;20059;-78
2022/10/10 10:26:53;;;;;;;9.63;6.57;;;14.60;99.90;;;;;;4948784;28;20039;-78
2022/10/10 10:29:28;;;;;;;11.07;6.38;;;14.60;99.90;;;;;;4935291;28;20135;-77
2022/10/10 10:32:14;;;;;;;10.95;6.80;;;14.60;99.90;;;;;;4942018;28;20376;-78
2022/10/10 10:34:52;;;;;;;11.48;6.43;;;14.70;99.90;;;;;;4944204;28;20102;-79
2022/10/10 10:37:22;;;;;;;10.73;6.10;;;14.70;99.90;;;;;;4949360;29;20600;-79
2022/10/10 10:40:17;;;;;;;12.07;6.40;;;14.80;99.90;;;;;;4945499;29;20090;-78
2022/10/10 10:42:46;;;;;;;13.93;6.43;;;14.90;99.90;;;;;;4949244;28;20039;-78
2022/10/10 10:45:15;;;;;;;14.18;6.50;;;14.90;99.90;;;;;;4932415;28;20059;-78
2022/10/10 10:48:28;;;;;;;10.25;6.25;;;15.00;99.90;;;;;;4931038;28;20126;-78
2022/10/10 10:51:01;;;;;;;10.50;6.55;;;15.00;99.90;;;;;;4892035;28;20050;-78
2022/10/10 10:53:42;;;;;;;12.73;5.93;;;15.10;99.90;;;;;;4948609;28;20138;-77
2022/10/10 10:56:30;;;;;;;10.00;6.57;;;15.10;99.90;;;;;;4932802;29;20450;-78
2022/10/10 10:59:26;;;;;;;8.15;6.20;;;15.20;99.90;;;;;;4946734;28;20050;-77
2022/10/10 11:02:16;;;;;;;10.07;6.20;;;15.20;99.90;;;;;;4946762;28;20047;-78
2022/10/10 11:05:03;;;;;;;10.55;6.07;;;15.20;99.90;;;;;;4944376;28;20051;-77
2022/10/10 11:07:45;;;;;;;11.27;6.53;;;15.30;99.90;;;;;;4945933;28;20058;-77
2022/10/10 11:10:37;;;;;;;15.00;7.25;;;15.20;99.90;;;;;;4942373;28;20054;-77
2022/10/10 11:13:12;;;;;;;11.32;6.38;;;15.30;99.90;;;;;;4944687;28;20055;-79
2022/10/10 11:16:04;;;;;;;10.90;6.63;;;15.30;99.90;;;;;;4946049;28;20513;-78
2022/10/10 11:18:35;;;;;;;15.30;6.25;;;15.30;99.90;;;;;;4938627;28;20046;-77
2022/10/10 11:21:19;;;;;;;12.00;6.32;;;15.30;99.90;;;;;;4931958;28;20058;-80
2022/10/10 11:23:53;;;;;;;9.82;6.10;;;15.20;99.90;;;;;;4936223;28;20336;-79
2022/10/10 11:26:28;;;;;;;12.52;6.43;;;15.20;99.90;;;;;;4943846;28;20054;-78
2022/10/10 11:29:08;;;;;;;8.88;6.25;;;15.30;99.90;;;;;;4949548;28;20043;-78
2022/10/10 11:31:42;;;;;;;12.00;5.95;;;15.20;99.90;;;;;;4948698;28;20489;-79
2022/10/10 11:34:15;;;;;;;14.45;6.80;;;15.20;99.90;;;;;;4936039;29;20051;-79
2022/10/10 11:36:44;;;;;;;11.40;6.35;;;15.20;99.90;;;;;;4945976;28;20039;-80
2022/10/10 11:39:14;;;;;;;13.65;6.53;;;15.30;99.90;;;;;;4937207;29;20051;-79
2022/10/10 11:41:56;;;;;;;8.85;5.88;;;15.20;99.90;;;;;;4950954;28;20050;-81
2022/10/10 11:44:37;;;;;;;9.73;6.10;;;15.20;99.90;;;;;;4952905;28;20094;-79
2022/10/10 11:47:31;;;;;;;10.95;5.95;;;15.10;99.90;;;;;;4947198;28;20047;-75
2022/10/10 11:50:07;;;;;;;9.45;5.97;;;15.00;99.90;;;;;;4948345;28;20864;-82
2022/10/10 11:52:50;;;;;;;10.00;6.43;;;15.00;99.90;;;;;;4933335;28;20043;-77
2022/10/10 11:55:27;;;;;;;12.35;6.07;;;14.90;99.90;;;;;;4963455;28;20074;-72
2022/10/10 11:58:14;;;;;;;19.17;6.50;;;14.90;99.90;;;;;;4945986;28;20594;-79
2022/10/10 12:00:57;;;;;;;10.43;6.70;;;14.80;99.90;;;;;;4942675;28;20129;-80
2022/10/10 12:03:24;;;;;;;;;;;14.80;99.90;;;;;;4946595;28;20118;-79
2022/10/10 12:05:56;;;;;;;11.50;6.53;;;14.80;99.90;;;;;;4928139;28;19929;-79
2022/10/10 14:00:06;;;;;;;25.45;13.45;;;13.90;99.90;;;;;;5672786;23;21326;-76
2022/10/10 14:05:53;;;;;;;21.60;11.85;;;14.00;99.90;;;;;;5915020;23;20088;-79
2022/10/10 14:10:11;;;;;;;;;;;;;;;;;;;;;
2022/10/10 14:17:20;;;;;;;13.80;9.98;;;13.90;99.90;;;;;;4804789;29;20053;-75
2022/10/10 14:19:48;;;;;;;12.45;5.30;;;13.90;99.90;;;;;;4842727;29;20419;-77
2022/10/10 14:22:16;;;;;;;5.82;4.00;;;13.80;99.90;;;;;;4840972;29;20181;-76
2022/10/10 14:24:43;;;;;;;4.75;1.98;;;13.70;99.90;;;;;;4899457;29;20549;-75
2022/10/10 14:27:22;;;;;;;3.88;1.60;;;13.70;99.90;;;;;;4920716;29;20094;-73
2022/10/10 14:30:35;;;;;;;2.55;1.05;;;13.60;99.90;;;;;;4926214;29;20039;-82
2022/10/10 14:33:35;;;;;;;1.95;1.00;;;13.50;99.90;;;;;;5712797;23;21198;-77
2022/10/10 14:36:21;;;;;;;4.15;1.05;;;13.30;99.90;;;;;;4949118;28;20081;-78
2022/10/10 14:38:46;;;;;;;5.82;1.30;;;13.30;99.90;;;;;;4936855;28;20039;-77
2022/10/10 14:41:12;;;;;;;3.45;0.80;;;13.30;99.90;;;;;;4961361;28;20129;-77
2022/10/10 14:43:38;;;;;;;5.57;1.05;;;13.20;99.90;;;;;;4932650;28;20039;-79
2022/10/10 14:46:04;;;;;;;5.35;1.30;;;13.20;99.90;;;;;;4955823;28;20093;-78
2022/10/10 14:48:30;;;;;;;6.25;1.23;;;13.10;99.90;;;;;;4932740;29;20130;-78
2022/10/10 14:50:56;;;;;;;6.72;1.35;;;13.00;99.90;;;;;;4940642;28;20055;-78
2022/10/10 14:53:22;;;;;;;6.50;1.20;;;13.00;99.90;;;;;;4936208;29;20603;-77
2022/10/10 14:55:48;;;;;;;11.98;1.88;;;13.00;99.90;;;;;;4918714;29;20051;-76
2022/10/10 14:58:17;;;;;;;7.88;1.60;;;13.00;99.90;;;;;;4916559;29;20094;-74
2022/10/10 15:00:43;;;;;;;9.85;1.52;;;13.10;99.90;;;;;;4937140;29;20055;-75
2022/10/10 15:03:09;;;;;;;13.45;2.05;;;13.00;99.90;;;;;;4933738;29;20054;-76
2022/10/10 15:05:35;;;;;;;6.63;1.50;;;13.00;99.90;;;;;;4913796;28;20043;-76
2022/10/10 15:08:01;;;;;;;13.18;1.73;;;13.00;99.90;;;;;;4932997;28;20048;-75
2022/10/10 15:10:27;;;;;;;9.35;1.73;;;13.00;99.90;;;;;;4936254;29;20054;-76